NZBA weather

Balclutha Aerodrome
Balclutha, Otago Region, New Zealand

Public forecast

Using degrees Celsius for public forecast. Weather courtesy of forecast.io.

Closest aviation weather report (METAR) to Balclutha Aerodrome

Closest report is Christchurch International Airport, 203.3 nm (376.6 km) NE. Retrieved 2020/07/02 06:00 UTC (17 minutes ago):

NZCH 020600Z AUTO 27004KT 9999 BKN017/// BKN041/// 06/05 Q1020 NOSIG

Closest aviation forecast (TAF) to Balclutha Aerodrome

Forecast is more than 12 hours old.

Closest forecast is Queenstown International Airport, 84.8 nm (157.0 km) NNW. Retrieved 2020/07/01 18:04 UTC (12 hours ago):

TAF NZQN 011701Z 0118/0212 04005KT 9999 FEW020 SCT045